sensor_id;sensor_type;location;lat;lon;timestamp;P1;durP1;ratioP1;P2;durP2;ratioP2
8191;SDS011;4137;49.764;8.652;2022-08-19T00:01:15;18.55;;;16.92;;
8191;SDS011;4137;49.764;8.652;2022-08-19T00:03:41;18.20;;;16.60;;
8191;SDS011;4137;49.764;8.652;2022-08-19T00:06:08;19.52;;;17.65;;
8191;SDS011;4137;49.764;8.652;2022-08-19T00:08:34;18.73;;;17.02;;
8191;SDS011;4137;49.764;8.652;2022-08-19T00:11:00;18.90;;;17.10;;
8191;SDS011;4137;49.764;8.652;2022-08-19T00:13:26;20.13;;;18.20;;
8191;SDS011;4137;49.764;8.652;2022-08-19T00:15:53;19.05;;;17.23;;
8191;SDS011;4137;49.764;8.652;2022-08-19T00:18:19;19.45;;;17.63;;
8191;SDS011;4137;49.764;8.652;2022-08-19T00:20:45;19.42;;;17.27;;
8191;SDS011;4137;49.764;8.652;2022-08-19T00:23:11;18.77;;;16.85;;
8191;SDS011;4137;49.764;8.652;2022-08-19T00:25:37;19.40;;;17.65;;
8191;SDS011;4137;49.764;8.652;2022-08-19T00:28:04;18.60;;;17.02;;
8191;SDS011;4137;49.764;8.652;2022-08-19T00:30:30;19.10;;;17.45;;
8191;SDS011;4137;49.764;8.652;2022-08-19T00:32:56;18.60;;;16.98;;
8191;SDS011;4137;49.764;8.652;2022-08-19T00:35:23;18.95;;;17.35;;
8191;SDS011;4137;49.764;8.652;2022-08-19T00:37:50;17.85;;;16.35;;
8191;SDS011;4137;49.764;8.652;2022-08-19T00:40:16;19.35;;;17.65;;
8191;SDS011;4137;49.764;8.652;2022-08-19T00:42:44;19.13;;;17.48;;
8191;SDS011;4137;49.764;8.652;2022-08-19T00:45:13;19.30;;;17.52;;
8191;SDS011;4137;49.764;8.652;2022-08-19T00:47:39;19.58;;;17.77;;
8191;SDS011;4137;49.764;8.652;2022-08-19T00:50:06;18.65;;;17.02;;
8191;SDS011;4137;49.764;8.652;2022-08-19T00:52:34;18.73;;;17.13;;
8191;SDS011;4137;49.764;8.652;2022-08-19T00:55:03;18.52;;;16.92;;
8191;SDS011;4137;49.764;8.652;2022-08-19T00:57:33;20.20;;;18.33;;
8191;SDS011;4137;49.764;8.652;2022-08-19T01:00:00;19.40;;;17.73;;
8191;SDS011;4137;49.764;8.652;2022-08-19T01:02:27;20.10;;;18.30;;
8191;SDS011;4137;49.764;8.652;2022-08-19T01:04:53;19.35;;;17.65;;
8191;SDS011;4137;49.764;8.652;2022-08-19T01:07:19;19.50;;;17.80;;
8191;SDS011;4137;49.764;8.652;2022-08-19T01:09:46;18.65;;;16.95;;
8191;SDS011;4137;49.764;8.652;2022-08-19T01:12:12;18.73;;;16.88;;
8191;SDS011;4137;49.764;8.652;2022-08-19T01:14:39;18.80;;;17.08;;
8191;SDS011;4137;49.764;8.652;2022-08-19T01:17:05;19.25;;;17.67;;
8191;SDS011;4137;49.764;8.652;2022-08-19T01:19:35;18.98;;;17.15;;
8191;SDS011;4137;49.764;8.652;2022-08-19T01:22:03;18.38;;;16.83;;
8191;SDS011;4137;49.764;8.652;2022-08-19T01:24:31;19.35;;;17.67;;
8191;SDS011;4137;49.764;8.652;2022-08-19T01:26:57;18.67;;;16.95;;
8191;SDS011;4137;49.764;8.652;2022-08-19T01:29:23;19.20;;;17.35;;
8191;SDS011;4137;49.764;8.652;2022-08-19T01:31:49;18.88;;;17.17;;
8191;SDS011;4137;49.764;8.652;2022-08-19T01:34:17;19.00;;;17.50;;
8191;SDS011;4137;49.764;8.652;2022-08-19T01:36:44;19.25;;;17.40;;
8191;SDS011;4137;49.764;8.652;2022-08-19T01:39:12;18.42;;;16.83;;
8191;SDS011;4137;49.764;8.652;2022-08-19T01:41:39;19.00;;;17.35;;
8191;SDS011;4137;49.764;8.652;2022-08-19T01:44:05;18.92;;;17.33;;
8191;SDS011;4137;49.764;8.652;2022-08-19T01:46:32;19.23;;;17.52;;
8191;SDS011;4137;49.764;8.652;2022-08-19T01:48:59;19.70;;;17.88;;
8191;SDS011;4137;49.764;8.652;2022-08-19T01:51:25;17.83;;;16.27;;
8191;SDS011;4137;49.764;8.652;2022-08-19T01:53:51;19.38;;;17.60;;
8191;SDS011;4137;49.764;8.652;2022-08-19T01:56:18;19.75;;;17.75;;
8191;SDS011;4137;49.764;8.652;2022-08-19T01:58:49;18.55;;;16.75;;
8191;SDS011;4137;49.764;8.652;2022-08-19T02:01:15;19.10;;;17.33;;
8191;SDS011;4137;49.764;8.652;2022-08-19T02:03:42;20.55;;;18.55;;
8191;SDS011;4137;49.764;8.652;2022-08-19T02:06:08;19.30;;;17.55;;
8191;SDS011;4137;49.764;8.652;2022-08-19T02:08:35;19.95;;;18.05;;
8191;SDS011;4137;49.764;8.652;2022-08-19T02:11:05;19.38;;;17.63;;
8191;SDS011;4137;49.764;8.652;2022-08-19T02:13:33;18.92;;;17.27;;
8191;SDS011;4137;49.764;8.652;2022-08-19T02:15:59;19.20;;;17.42;;
8191;SDS011;4137;49.764;8.652;2022-08-19T02:18:25;19.60;;;17.80;;
8191;SDS011;4137;49.764;8.652;2022-08-19T02:20:51;19.20;;;17.48;;
8191;SDS011;4137;49.764;8.652;2022-08-19T02:23:18;18.73;;;16.92;;
8191;SDS011;4137;49.764;8.652;2022-08-19T02:25:45;20.13;;;17.92;;
8191;SDS011;4137;49.764;8.652;2022-08-19T02:28:12;19.55;;;17.75;;
8191;SDS011;4137;49.764;8.652;2022-08-19T02:30:40;18.95;;;17.02;;
8191;SDS011;4137;49.764;8.652;2022-08-19T02:33:06;19.90;;;17.70;;
8191;SDS011;4137;49.764;8.652;2022-08-19T02:35:32;18.75;;;17.15;;
8191;SDS011;4137;49.764;8.652;2022-08-19T02:37:58;18.52;;;16.85;;
8191;SDS011;4137;49.764;8.652;2022-08-19T02:40:48;19.63;;;17.83;;
8191;SDS011;4137;49.764;8.652;2022-08-19T02:43:15;19.63;;;17.55;;
8191;SDS011;4137;49.764;8.652;2022-08-19T02:45:41;19.38;;;17.52;;
8191;SDS011;4137;49.764;8.652;2022-08-19T02:48:07;19.77;;;17.88;;
8191;SDS011;4137;49.764;8.652;2022-08-19T02:50:37;19.85;;;17.75;;
8191;SDS011;4137;49.764;8.652;2022-08-19T02:53:03;19.88;;;17.90;;
8191;SDS011;4137;49.764;8.652;2022-08-19T02:55:30;19.67;;;17.92;;
8191;SDS011;4137;49.764;8.652;2022-08-19T02:57:56;20.17;;;18.17;;
8191;SDS011;4137;49.764;8.652;2022-08-19T03:00:22;19.73;;;17.90;;
8191;SDS011;4137;49.764;8.652;2022-08-19T03:02:49;20.23;;;18.23;;
8191;SDS011;4137;49.764;8.652;2022-08-19T03:05:15;20.10;;;18.23;;
8191;SDS011;4137;49.764;8.652;2022-08-19T03:07:41;21.08;;;19.02;;
8191;SDS011;4137;49.764;8.652;2022-08-19T03:10:07;20.02;;;18.13;;
8191;SDS011;4137;49.764;8.652;2022-08-19T03:12:37;19.40;;;17.50;;
8191;SDS011;4137;49.764;8.652;2022-08-19T03:15:04;20.25;;;18.10;;
8191;SDS011;4137;49.764;8.652;2022-08-19T03:17:31;19.38;;;17.60;;
8191;SDS011;4137;49.764;8.652;2022-08-19T03:19:57;19.85;;;18.05;;
8191;SDS011;4137;49.764;8.652;2022-08-19T03:22:23;20.80;;;18.80;;
8191;SDS011;4137;49.764;8.652;2022-08-19T03:24:50;21.00;;;18.65;;
8191;SDS011;4137;49.764;8.652;2022-08-19T03:27:16;20.13;;;18.17;;
8191;SDS011;4137;49.764;8.652;2022-08-19T03:29:42;19.95;;;17.98;;
8191;SDS011;4137;49.764;8.652;2022-08-19T03:32:08;19.50;;;17.70;;
8191;SDS011;4137;49.764;8.652;2022-08-19T03:34:36;20.30;;;18.25;;
8191;SDS011;4137;49.764;8.652;2022-08-19T03:37:04;21.02;;;18.95;;
8191;SDS011;4137;49.764;8.652;2022-08-19T03:39:30;21.27;;;19.02;;
8191;SDS011;4137;49.764;8.652;2022-08-19T03:41:56;20.00;;;18.05;;
8191;SDS011;4137;49.764;8.652;2022-08-19T03:44:27;19.95;;;18.10;;
8191;SDS011;4137;49.764;8.652;2022-08-19T03:46:54;21.23;;;18.67;;
8191;SDS011;4137;49.764;8.652;2022-08-19T03:49:20;21.85;;;19.63;;
8191;SDS011;4137;49.764;8.652;2022-08-19T03:51:48;21.17;;;18.77;;
8191;SDS011;4137;49.764;8.652;2022-08-19T03:54:16;21.23;;;19.08;;
8191;SDS011;4137;49.764;8.652;2022-08-19T03:56:43;19.35;;;17.65;;
8191;SDS011;4137;49.764;8.652;2022-08-19T03:59:10;20.00;;;18.00;;
8191;SDS011;4137;49.764;8.652;2022-08-19T04:01:38;21.10;;;18.90;;
8191;SDS011;4137;49.764;8.652;2022-08-19T04:04:04;20.95;;;18.77;;
8191;SDS011;4137;49.764;8.652;2022-08-19T04:06:31;21.38;;;18.05;;
8191;SDS011;4137;49.764;8.652;2022-08-19T04:08:58;20.13;;;17.98;;
8191;SDS011;4137;49.764;8.652;2022-08-19T04:11:27;22.33;;;18.15;;
8191;SDS011;4137;49.764;8.652;2022-08-19T04:13:53;21.30;;;19.20;;
8191;SDS011;4137;49.764;8.652;2022-08-19T04:16:21;20.35;;;18.45;;
8191;SDS011;4137;49.764;8.652;2022-08-19T04:18:47;20.48;;;18.33;;
8191;SDS011;4137;49.764;8.652;2022-08-19T04:21:18;20.58;;;18.40;;
8191;SDS011;4137;49.764;8.652;2022-08-19T04:23:44;20.05;;;18.15;;
8191;SDS011;4137;49.764;8.652;2022-08-19T04:26:17;21.98;;;18.42;;
8191;SDS011;4137;49.764;8.652;2022-08-19T04:28:44;20.83;;;18.83;;
8191;SDS011;4137;49.764;8.652;2022-08-19T04:31:14;20.05;;;18.05;;
8191;SDS011;4137;49.764;8.652;2022-08-19T04:33:41;19.58;;;17.65;;
8191;SDS011;4137;49.764;8.652;2022-08-19T04:36:07;20.30;;;18.40;;
8191;SDS011;4137;49.764;8.652;2022-08-19T04:38:35;19.75;;;17.85;;
8191;SDS011;4137;49.764;8.652;2022-08-19T04:41:02;19.15;;;17.42;;
8191;SDS011;4137;49.764;8.652;2022-08-19T04:43:47;20.35;;;18.20;;
8191;SDS011;4137;49.764;8.652;2022-08-19T04:46:13;20.17;;;18.27;;
8191;SDS011;4137;49.764;8.652;2022-08-19T04:48:39;19.58;;;17.65;;
8191;SDS011;4137;49.764;8.652;2022-08-19T04:51:07;19.23;;;17.52;;
8191;SDS011;4137;49.764;8.652;2022-08-19T04:53:34;19.85;;;17.95;;
8191;SDS011;4137;49.764;8.652;2022-08-19T04:56:04;19.33;;;17.38;;
8191;SDS011;4137;49.764;8.652;2022-08-19T04:58:31;20.35;;;16.80;;
8191;SDS011;4137;49.764;8.652;2022-08-19T05:00:57;20.30;;;17.60;;
8191;SDS011;4137;49.764;8.652;2022-08-19T05:03:25;18.85;;;17.15;;
8191;SDS011;4137;49.764;8.652;2022-08-19T05:05:51;18.70;;;16.85;;
8191;SDS011;4137;49.764;8.652;2022-08-19T05:08:18;19.25;;;17.55;;
8191;SDS011;4137;49.764;8.652;2022-08-19T05:10:47;19.75;;;17.75;;
8191;SDS011;4137;49.764;8.652;2022-08-19T05:13:14;19.65;;;17.65;;
8191;SDS011;4137;49.764;8.652;2022-08-19T05:15:41;19.60;;;17.17;;
8191;SDS011;4137;49.764;8.652;2022-08-19T05:18:07;19.38;;;17.42;;
8191;SDS011;4137;49.764;8.652;2022-08-19T05:20:52;20.40;;;18.30;;
8191;SDS011;4137;49.764;8.652;2022-08-19T05:23:37;18.75;;;16.85;;
8191;SDS011;4137;49.764;8.652;2022-08-19T05:26:03;21.45;;;17.40;;
8191;SDS011;4137;49.764;8.652;2022-08-19T05:28:30;19.73;;;17.27;;
8191;SDS011;4137;49.764;8.652;2022-08-19T05:30:56;18.17;;;16.35;;
8191;SDS011;4137;49.764;8.652;2022-08-19T05:33:22;19.17;;;17.27;;
8191;SDS011;4137;49.764;8.652;2022-08-19T05:35:49;18.17;;;16.33;;
8191;SDS011;4137;49.764;8.652;2022-08-19T05:38:16;22.02;;;18.15;;
8191;SDS011;4137;49.764;8.652;2022-08-19T05:40:42;18.55;;;16.77;;
8191;SDS011;4137;49.764;8.652;2022-08-19T05:43:14;25.73;;;18.17;;
8191;SDS011;4137;49.764;8.652;2022-08-19T05:45:43;19.48;;;16.73;;
8191;SDS011;4137;49.764;8.652;2022-08-19T05:48:10;19.25;;;17.05;;
8191;SDS011;4137;49.764;8.652;2022-08-19T05:50:37;19.33;;;17.42;;
8191;SDS011;4137;49.764;8.652;2022-08-19T05:53:03;18.85;;;17.08;;
8191;SDS011;4137;49.764;8.652;2022-08-19T05:55:30;22.65;;;19.17;;
8191;SDS011;4137;49.764;8.652;2022-08-19T05:57:56;18.30;;;16.50;;
8191;SDS011;4137;49.764;8.652;2022-08-19T06:00:22;18.35;;;16.48;;
8191;SDS011;4137;49.764;8.652;2022-08-19T06:02:49;19.00;;;17.17;;
8191;SDS011;4137;49.764;8.652;2022-08-19T06:05:15;18.15;;;16.45;;
8191;SDS011;4137;49.764;8.652;2022-08-19T06:07:42;18.85;;;17.05;;
8191;SDS011;4137;49.764;8.652;2022-08-19T06:10:09;18.33;;;16.58;;
8191;SDS011;4137;49.764;8.652;2022-08-19T06:12:36;18.42;;;16.77;;
8191;SDS011;4137;49.764;8.652;2022-08-19T06:15:06;17.08;;;15.57;;
8191;SDS011;4137;49.764;8.652;2022-08-19T06:17:33;16.92;;;15.43;;
8191;SDS011;4137;49.764;8.652;2022-08-19T06:20:00;17.77;;;16.17;;
8191;SDS011;4137;49.764;8.652;2022-08-19T06:22:26;17.42;;;15.73;;
8191;SDS011;4137;49.764;8.652;2022-08-19T06:24:53;16.45;;;14.95;;
8191;SDS011;4137;49.764;8.652;2022-08-19T06:27:20;17.48;;;15.57;;
8191;SDS011;4137;49.764;8.652;2022-08-19T06:29:46;18.02;;;16.23;;
8191;SDS011;4137;49.764;8.652;2022-08-19T06:32:14;16.17;;;14.77;;
8191;SDS011;4137;49.764;8.652;2022-08-19T06:34:41;16.70;;;15.15;;
8191;SDS011;4137;49.764;8.652;2022-08-19T06:37:07;18.25;;;16.50;;
8191;SDS011;4137;49.764;8.652;2022-08-19T06:39:34;18.67;;;16.98;;
8191;SDS011;4137;49.764;8.652;2022-08-19T06:42:01;19.85;;;17.95;;
8191;SDS011;4137;49.764;8.652;2022-08-19T06:44:28;20.45;;;18.08;;
8191;SDS011;4137;49.764;8.652;2022-08-19T06:47:01;20.05;;;17.88;;
8191;SDS011;4137;49.764;8.652;2022-08-19T06:49:27;17.58;;;15.77;;
8191;SDS011;4137;49.764;8.652;2022-08-19T06:51:55;18.25;;;16.42;;
8191;SDS011;4137;49.764;8.652;2022-08-19T06:54:22;17.13;;;15.52;;
8191;SDS011;4137;49.764;8.652;2022-08-19T06:56:48;18.48;;;16.63;;
8191;SDS011;4137;49.764;8.652;2022-08-19T06:59:15;16.25;;;14.85;;
8191;SDS011;4137;49.764;8.652;2022-08-19T07:01:44;17.20;;;15.65;;
8191;SDS011;4137;49.764;8.652;2022-08-19T07:04:12;15.90;;;14.50;;
8191;SDS011;4137;49.764;8.652;2022-08-19T07:06:38;16.35;;;14.98;;
8191;SDS011;4137;49.764;8.652;2022-08-19T07:09:05;16.08;;;14.57;;
8191;SDS011;4137;49.764;8.652;2022-08-19T07:11:31;16.08;;;14.75;;
8191;SDS011;4137;49.764;8.652;2022-08-19T07:13:57;16.25;;;14.75;;
8191;SDS011;4137;49.764;8.652;2022-08-19T07:16:24;15.40;;;13.77;;
8191;SDS011;4137;49.764;8.652;2022-08-19T07:18:50;15.13;;;13.52;;
8191;SDS011;4137;49.764;8.652;2022-08-19T07:21:18;14.77;;;13.55;;
8191;SDS011;4137;49.764;8.652;2022-08-19T07:23:45;14.52;;;13.23;;
8191;SDS011;4137;49.764;8.652;2022-08-19T07:26:18;13.77;;;12.50;;
8191;SDS011;4137;49.764;8.652;2022-08-19T07:28:44;14.85;;;13.43;;
8191;SDS011;4137;49.764;8.652;2022-08-19T07:31:12;14.70;;;13.40;;
8191;SDS011;4137;49.764;8.652;2022-08-19T07:33:38;14.45;;;13.02;;
8191;SDS011;4137;49.764;8.652;2022-08-19T07:36:06;15.55;;;13.73;;
8191;SDS011;4137;49.764;8.652;2022-08-19T07:38:33;14.88;;;13.32;;
8191;SDS011;4137;49.764;8.652;2022-08-19T07:41:00;13.68;;;12.50;;
8191;SDS011;4137;49.764;8.652;2022-08-19T07:43:26;13.90;;;12.57;;
8191;SDS011;4137;49.764;8.652;2022-08-19T07:45:53;15.25;;;13.75;;
8191;SDS011;4137;49.764;8.652;2022-08-19T07:48:22;13.20;;;12.18;;
8191;SDS011;4137;49.764;8.652;2022-08-19T07:50:49;13.57;;;12.43;;
8191;SDS011;4137;49.764;8.652;2022-08-19T07:53:16;13.57;;;12.43;;
8191;SDS011;4137;49.764;8.652;2022-08-19T07:55:42;12.95;;;11.95;;
8191;SDS011;4137;49.764;8.652;2022-08-19T07:58:08;14.13;;;11.52;;
8191;SDS011;4137;49.764;8.652;2022-08-19T08:00:34;12.10;;;11.05;;
8191;SDS011;4137;49.764;8.652;2022-08-19T08:03:00;10.68;;;9.90;;
8191;SDS011;4137;49.764;8.652;2022-08-19T08:05:26;10.45;;;9.55;;
8191;SDS011;4137;49.764;8.652;2022-08-19T08:08:11;10.52;;;9.60;;
8191;SDS011;4137;49.764;8.652;2022-08-19T08:11:07;8.38;;;7.78;;
8191;SDS011;4137;49.764;8.652;2022-08-19T08:13:33;7.43;;;7.03;;
8191;SDS011;4137;49.764;8.652;2022-08-19T08:16:03;9.52;;;8.50;;
8191;SDS011;4137;49.764;8.652;2022-08-19T08:18:30;10.55;;;7.35;;
8191;SDS011;4137;49.764;8.652;2022-08-19T08:20:56;9.02;;;7.40;;
8191;SDS011;4137;49.764;8.652;2022-08-19T08:23:23;7.65;;;7.05;;
8191;SDS011;4137;49.764;8.652;2022-08-19T08:25:54;7.13;;;6.78;;
8191;SDS011;4137;49.764;8.652;2022-08-19T08:28:20;8.75;;;6.60;;
8191;SDS011;4137;49.764;8.652;2022-08-19T08:30:47;7.28;;;6.88;;
8191;SDS011;4137;49.764;8.652;2022-08-19T08:33:16;6.97;;;6.30;;
8191;SDS011;4137;49.764;8.652;2022-08-19T08:35:43;7.05;;;6.20;;
8191;SDS011;4137;49.764;8.652;2022-08-19T08:38:10;6.90;;;6.32;;
8191;SDS011;4137;49.764;8.652;2022-08-19T08:45:37;7.03;;;6.47;;
8191;SDS011;4137;49.764;8.652;2022-08-19T08:48:08;6.82;;;6.50;;
8191;SDS011;4137;49.764;8.652;2022-08-19T08:50:38;6.68;;;6.28;;
8191;SDS011;4137;49.764;8.652;2022-08-19T08:53:06;7.35;;;7.00;;
8191;SDS011;4137;49.764;8.652;2022-08-19T08:55:33;7.15;;;6.75;;
8191;SDS011;4137;49.764;8.652;2022-08-19T09:00:30;8.00;;;7.40;;
8191;SDS011;4137;49.764;8.652;2022-08-19T09:02:57;7.00;;;6.40;;
8191;SDS011;4137;49.764;8.652;2022-08-19T09:05:26;6.28;;;6.07;;
8191;SDS011;4137;49.764;8.652;2022-08-19T09:10:44;6.32;;;6.03;;
8191;SDS011;4137;49.764;8.652;2022-08-19T09:15:54;5.60;;;5.30;;
8191;SDS011;4137;49.764;8.652;2022-08-19T09:18:20;6.20;;;5.80;;
8191;SDS011;4137;49.764;8.652;2022-08-19T09:20:46;5.40;;;5.18;;
8191;SDS011;4137;49.764;8.652;2022-08-19T09:23:13;5.22;;;4.75;;
8191;SDS011;4137;49.764;8.652;2022-08-19T09:25:39;4.70;;;4.60;;
8191;SDS011;4137;49.764;8.652;2022-08-19T09:28:05;5.65;;;4.82;;
8191;SDS011;4137;49.764;8.652;2022-08-19T09:30:33;4.50;;;4.30;;
8191;SDS011;4137;49.764;8.652;2022-08-19T09:32:59;5.57;;;5.20;;
8191;SDS011;4137;49.764;8.652;2022-08-19T09:35:27;4.30;;;4.20;;
8191;SDS011;4137;49.764;8.652;2022-08-19T09:37:56;5.18;;;4.97;;
8191;SDS011;4137;49.764;8.652;2022-08-19T09:40:22;4.78;;;4.57;;
8191;SDS011;4137;49.764;8.652;2022-08-19T09:42:49;5.45;;;5.05;;
8191;SDS011;4137;49.764;8.652;2022-08-19T09:45:16;5.30;;;5.00;;
8191;SDS011;4137;49.764;8.652;2022-08-19T09:47:43;5.72;;;5.30;;
8191;SDS011;4137;49.764;8.652;2022-08-19T09:50:09;6.05;;;5.68;;
8191;SDS011;4137;49.764;8.652;2022-08-19T09:52:36;6.18;;;5.93;;
8191;SDS011;4137;49.764;8.652;2022-08-19T09:55:05;5.30;;;5.00;;
8191;SDS011;4137;49.764;8.652;2022-08-19T09:57:32;5.90;;;5.60;;
8191;SDS011;4137;49.764;8.652;2022-08-19T09:59:58;5.63;;;5.25;;
8191;SDS011;4137;49.764;8.652;2022-08-19T10:02:24;5.47;;;5.20;;
8191;SDS011;4137;49.764;8.652;2022-08-19T10:04:51;5.70;;;5.50;;
8191;SDS011;4137;49.764;8.652;2022-08-19T10:07:36;5.97;;;5.57;;
8191;SDS011;4137;49.764;8.652;2022-08-19T10:10:05;5.93;;;5.20;;
8191;SDS011;4137;49.764;8.652;2022-08-19T10:12:34;5.78;;;5.43;;
8191;SDS011;4137;49.764;8.652;2022-08-19T10:15:00;6.30;;;5.68;;
8191;SDS011;4137;49.764;8.652;2022-08-19T10:17:27;6.07;;;5.78;;
8191;SDS011;4137;49.764;8.652;2022-08-19T10:19:53;5.78;;;5.57;;
8191;SDS011;4137;49.764;8.652;2022-08-19T10:22:19;5.90;;;5.68;;
8191;SDS011;4137;49.764;8.652;2022-08-19T10:24:46;5.93;;;5.63;;
8191;SDS011;4137;49.764;8.652;2022-08-19T10:27:12;5.50;;;5.07;;
8191;SDS011;4137;49.764;8.652;2022-08-19T10:29:39;5.70;;;5.32;;
8191;SDS011;4137;49.764;8.652;2022-08-19T10:32:07;6.50;;;6.20;;
8191;SDS011;4137;49.764;8.652;2022-08-19T10:34:34;6.35;;;5.95;;
8191;SDS011;4137;49.764;8.652;2022-08-19T10:37:02;6.65;;;6.35;;
8191;SDS011;4137;49.764;8.652;2022-08-19T10:39:30;6.45;;;6.15;;
8191;SDS011;4137;49.764;8.652;2022-08-19T10:41:57;7.15;;;6.85;;
8191;SDS011;4137;49.764;8.652;2022-08-19T10:44:23;7.22;;;6.93;;
8191;SDS011;4137;49.764;8.652;2022-08-19T10:46:49;7.32;;;6.93;;
8191;SDS011;4137;49.764;8.652;2022-08-19T10:49:17;7.57;;;7.25;;
8191;SDS011;4137;49.764;8.652;2022-08-19T10:51:44;6.97;;;6.53;;
8191;SDS011;4137;49.764;8.652;2022-08-19T10:54:29;8.30;;;7.80;;
8191;SDS011;4137;49.764;8.652;2022-08-19T10:57:14;8.60;;;8.23;;
8191;SDS011;4137;49.764;8.652;2022-08-19T10:59:40;7.63;;;7.22;;
8191;SDS011;4137;49.764;8.652;2022-08-19T11:02:07;8.32;;;7.68;;
8191;SDS011;4137;49.764;8.652;2022-08-19T11:04:34;8.02;;;7.65;;
8191;SDS011;4137;49.764;8.652;2022-08-19T11:07:01;9.52;;;8.93;;
8191;SDS011;4137;49.764;8.652;2022-08-19T11:09:27;10.45;;;9.80;;
8191;SDS011;4137;49.764;8.652;2022-08-19T11:11:53;7.43;;;6.95;;
8191;SDS011;4137;49.764;8.652;2022-08-19T11:14:21;7.30;;;6.70;;
8191;SDS011;4137;49.764;8.652;2022-08-19T11:16:48;7.20;;;6.78;;
8191;SDS011;4137;49.764;8.652;2022-08-19T11:19:15;8.43;;;7.85;;
8191;SDS011;4137;49.764;8.652;2022-08-19T11:21:44;8.38;;;8.07;;
8191;SDS011;4137;49.764;8.652;2022-08-19T11:24:12;9.20;;;8.55;;
8191;SDS011;4137;49.764;8.652;2022-08-19T11:26:40;9.23;;;8.73;;
8191;SDS011;4137;49.764;8.652;2022-08-19T11:29:07;9.27;;;8.73;;
8191;SDS011;4137;49.764;8.652;2022-08-19T11:31:36;9.05;;;8.63;;
8191;SDS011;4137;49.764;8.652;2022-08-19T11:34:05;7.80;;;7.30;;
8191;SDS011;4137;49.764;8.652;2022-08-19T11:36:32;9.40;;;8.55;;
8191;SDS011;4137;49.764;8.652;2022-08-19T11:38:58;9.60;;;8.90;;
8191;SDS011;4137;49.764;8.652;2022-08-19T11:41:25;10.70;;;9.85;;
8191;SDS011;4137;49.764;8.652;2022-08-19T11:43:51;10.55;;;9.88;;
8191;SDS011;4137;49.764;8.652;2022-08-19T11:46:20;10.27;;;9.75;;
8191;SDS011;4137;49.764;8.652;2022-08-19T11:48:46;10.25;;;9.43;;
8191;SDS011;4137;49.764;8.652;2022-08-19T11:51:16;9.93;;;9.52;;
8191;SDS011;4137;49.764;8.652;2022-08-19T11:53:44;11.38;;;10.63;;
8191;SDS011;4137;49.764;8.652;2022-08-19T11:56:10;10.02;;;9.52;;
8191;SDS011;4137;49.764;8.652;2022-08-19T11:58:36;9.27;;;8.88;;
8191;SDS011;4137;49.764;8.652;2022-08-19T12:01:06;8.63;;;8.13;;
8191;SDS011;4137;49.764;8.652;2022-08-19T12:03:32;8.30;;;7.90;;
8191;SDS011;4137;49.764;8.652;2022-08-19T12:06:02;8.63;;;8.18;;
8191;SDS011;4137;49.764;8.652;2022-08-19T12:08:28;8.65;;;8.13;;
8191;SDS011;4137;49.764;8.652;2022-08-19T12:10:54;7.75;;;7.50;;
8191;SDS011;4137;49.764;8.652;2022-08-19T12:13:21;8.77;;;8.32;;
8191;SDS011;4137;49.764;8.652;2022-08-19T12:15:47;7.85;;;7.65;;
8191;SDS011;4137;49.764;8.652;2022-08-19T12:18:13;8.73;;;8.18;;
8191;SDS011;4137;49.764;8.652;2022-08-19T12:20:40;7.78;;;7.47;;
8191;SDS011;4137;49.764;8.652;2022-08-19T12:23:07;8.30;;;7.90;;
8191;SDS011;4137;49.764;8.652;2022-08-19T12:25:34;8.10;;;7.90;;
8191;SDS011;4137;49.764;8.652;2022-08-19T12:28:00;7.88;;;7.53;;
8191;SDS011;4137;49.764;8.652;2022-08-19T12:30:26;8.00;;;7.70;;
8191;SDS011;4137;49.764;8.652;2022-08-19T12:32:53;9.18;;;8.63;;
8191;SDS011;4137;49.764;8.652;2022-08-19T12:35:19;8.35;;;8.05;;
8191;SDS011;4137;49.764;8.652;2022-08-19T12:37:46;8.30;;;8.02;;
8191;SDS011;4137;49.764;8.652;2022-08-19T12:40:12;8.75;;;8.30;;
8191;SDS011;4137;49.764;8.652;2022-08-19T12:42:38;7.50;;;7.30;;
8191;SDS011;4137;49.764;8.652;2022-08-19T12:45:08;7.45;;;7.15;;
8191;SDS011;4137;49.764;8.652;2022-08-19T12:47:35;7.65;;;7.40;;
8191;SDS011;4137;49.764;8.652;2022-08-19T12:50:01;8.05;;;7.75;;
8191;SDS011;4137;49.764;8.652;2022-08-19T12:52:27;7.55;;;7.30;;
8191;SDS011;4137;49.764;8.652;2022-08-19T12:54:54;6.90;;;6.57;;
8191;SDS011;4137;49.764;8.652;2022-08-19T12:57:21;6.22;;;5.78;;
8191;SDS011;4137;49.764;8.652;2022-08-19T12:59:48;6.38;;;6.20;;
8191;SDS011;4137;49.764;8.652;2022-08-19T13:02:18;6.00;;;5.68;;
8191;SDS011;4137;49.764;8.652;2022-08-19T13:04:44;6.30;;;6.20;;
8191;SDS011;4137;49.764;8.652;2022-08-19T13:07:11;5.95;;;5.65;;
8191;SDS011;4137;49.764;8.652;2022-08-19T13:09:37;5.55;;;5.35;;
8191;SDS011;4137;49.764;8.652;2022-08-19T13:12:06;6.03;;;5.80;;
8191;SDS011;4137;49.764;8.652;2022-08-19T13:14:37;7.35;;;7.05;;
8191;SDS011;4137;49.764;8.652;2022-08-19T13:17:03;5.75;;;5.53;;
8191;SDS011;4137;49.764;8.652;2022-08-19T13:19:29;5.15;;;4.90;;
8191;SDS011;4137;49.764;8.652;2022-08-19T13:21:56;5.30;;;4.90;;
8191;SDS011;4137;49.764;8.652;2022-08-19T13:24:23;4.93;;;4.70;;
8191;SDS011;4137;49.764;8.652;2022-08-19T13:26:49;5.18;;;4.97;;
8191;SDS011;4137;49.764;8.652;2022-08-19T13:29:15;5.13;;;4.93;;
8191;SDS011;4137;49.764;8.652;2022-08-19T13:32:00;5.38;;;5.20;;
8191;SDS011;4137;49.764;8.652;2022-08-19T13:34:44;5.15;;;5.00;;
8191;SDS011;4137;49.764;8.652;2022-08-19T13:37:11;5.40;;;5.15;;
8191;SDS011;4137;49.764;8.652;2022-08-19T13:39:37;4.95;;;4.75;;
8191;SDS011;4137;49.764;8.652;2022-08-19T13:42:04;4.55;;;4.55;;
8191;SDS011;4137;49.764;8.652;2022-08-19T13:44:31;5.13;;;4.93;;
8191;SDS011;4137;49.764;8.652;2022-08-19T13:47:01;5.53;;;5.10;;
8191;SDS011;4137;49.764;8.652;2022-08-19T13:49:30;5.35;;;5.10;;
8191;SDS011;4137;49.764;8.652;2022-08-19T13:51:56;5.28;;;5.18;;
8191;SDS011;4137;49.764;8.652;2022-08-19T13:54:22;4.47;;;4.35;;
8191;SDS011;4137;49.764;8.652;2022-08-19T13:56:48;5.00;;;4.68;;
8191;SDS011;4137;49.764;8.652;2022-08-19T13:59:14;4.88;;;4.70;;
8191;SDS011;4137;49.764;8.652;2022-08-19T14:01:41;4.50;;;4.40;;
8191;SDS011;4137;49.764;8.652;2022-08-19T14:04:08;4.25;;;4.15;;
8191;SDS011;4137;49.764;8.652;2022-08-19T14:06:34;4.35;;;4.15;;
8191;SDS011;4137;49.764;8.652;2022-08-19T14:09:00;4.35;;;4.25;;
8191;SDS011;4137;49.764;8.652;2022-08-19T14:11:27;3.92;;;3.72;;
8191;SDS011;4137;49.764;8.652;2022-08-19T14:13:53;4.25;;;4.25;;
8191;SDS011;4137;49.764;8.652;2022-08-19T14:16:19;4.00;;;3.90;;
8191;SDS011;4137;49.764;8.652;2022-08-19T14:18:46;4.28;;;4.00;;
8191;SDS011;4137;49.764;8.652;2022-08-19T14:21:16;3.67;;;3.67;;
8191;SDS011;4137;49.764;8.652;2022-08-19T14:23:43;4.40;;;4.30;;
8191;SDS011;4137;49.764;8.652;2022-08-19T14:26:11;5.13;;;4.65;;
8191;SDS011;4137;49.764;8.652;2022-08-19T14:28:37;4.20;;;4.18;;
8191;SDS011;4137;49.764;8.652;2022-08-19T14:31:05;3.85;;;3.75;;
8191;SDS011;4137;49.764;8.652;2022-08-19T14:33:32;3.90;;;3.80;;
8191;SDS011;4137;49.764;8.652;2022-08-19T14:35:58;4.40;;;4.20;;
8191;SDS011;4137;49.764;8.652;2022-08-19T14:38:25;5.10;;;4.68;;
8191;SDS011;4137;49.764;8.652;2022-08-19T14:40:51;5.20;;;4.85;;
8191;SDS011;4137;49.764;8.652;2022-08-19T14:43:17;5.25;;;4.97;;
8191;SDS011;4137;49.764;8.652;2022-08-19T14:45:44;4.45;;;4.43;;
8191;SDS011;4137;49.764;8.652;2022-08-19T14:48:10;4.60;;;4.40;;
8191;SDS011;4137;49.764;8.652;2022-08-19T14:50:37;4.22;;;4.13;;
8191;SDS011;4137;49.764;8.652;2022-08-19T14:53:05;3.15;;;2.67;;
8191;SDS011;4137;49.764;8.652;2022-08-19T14:55:32;3.20;;;3.20;;
8191;SDS011;4137;49.764;8.652;2022-08-19T14:57:58;3.97;;;3.70;;
8191;SDS011;4137;49.764;8.652;2022-08-19T15:00:25;5.25;;;4.70;;
8191;SDS011;4137;49.764;8.652;2022-08-19T15:02:51;5.15;;;4.85;;
8191;SDS011;4137;49.764;8.652;2022-08-19T15:05:19;4.90;;;4.72;;
8191;SDS011;4137;49.764;8.652;2022-08-19T15:07:45;4.70;;;4.60;;
8191;SDS011;4137;49.764;8.652;2022-08-19T15:10:12;4.35;;;4.25;;
8191;SDS011;4137;49.764;8.652;2022-08-19T15:12:38;4.63;;;4.53;;
8191;SDS011;4137;49.764;8.652;2022-08-19T15:15:06;4.95;;;4.65;;